Squad war stats
Faction Empire
Rank 157
TrueSkill™ 28,568
Reputation 18,413
Wars 143
Wins 65
Draws 38
Losses 40
Uplinks captured 5,763
Uplinks saved 1,455
Last updated 5 minutes ago
Mu 28.655
Sigma 0.025
Last War 1d
Current War ~FORCE~
Battle history
Date Opp. skill Opponent Result Score Opp. score Skill result Skill before Mu before Sigma before
2019-03-25 45% SpaceWeasels WIN 45 13 0 28568 28.655 0.025
2019-03-22 101% Padawans-LF WIN 38 27 +283 28285 28.513 0.065
2019-03-19 97% Balls.Of.Steel DRAW 45 45 0 28285 28.513 0.065
2019-03-17 101% RUCOSJEDI DRAW 45 45 0 28285 28.513 0.065
2019-03-15 90% RoninRebels WIN 45 18 +1 28284 28.512 0.065
2019-03-12 101% JEDI.NIGHTS DRAW 45 45 0 28284 28.512 0.065
2019-03-09 103% Force_Unleashed LOSS 32 44 0 28284 28.512 0.065
2019-03-06 93% TheRogueSpartans WIN 45 20 +4 28280 28.509 0.065
2019-03-04 86% RoughTeam DRAW 45 45 0 28280 28.509 0.065
2019-03-02 88% TheRebelMachine WIN 44 25 +1 28279 28.507 0.065
2019-02-27 86% Deutsch+Jedi WIN 45 3 +2 28277 28.506 0.065
2019-02-24 81% FrancEvolution3 LOSS 34 42 0 28277 28.506 0.065
2019-02-20 99% Havoc_Padawans DRAW 45 45 0 28277 28.506 0.065
2019-02-18 96% RancorRoughnecks WIN 45 27 +13 28264 28.495 0.066
2019-02-16 100% Ackbar_Awakens DRAW 33 33 +67 28197 28.833 0.182
2019-02-13 100% YodasMarines DRAW 45 45 0 28197 28.833 0.182
2019-02-11 98% USA-Rebel-Adults WIN 45 43 +20 28177 28.828 0.186
2019-02-09 100% Jedi_Brigada WIN 45 40 +18 28159 28.824 0.190
2019-01-30 97% ATTACKDAWGS WIN 45 18 0 28789 28.824 0.010
2019-01-27 98% PiratesLife4me WIN 45 40 0 28789 28.824 0.010
2019-01-25 99% RUCOSJEDI WIN 45 42 0 28789 28.824 0.010
2019-01-23 94% Canada.Edmonton LOSS 37 38 0 28789 28.824 0.010
2019-01-20 99% Ryan'sRaiders LOSS 32 38 0 28789 28.824 0.010
2019-01-18 94% Ruf-Nex DRAW 45 45 0 28789 28.824 0.010
2019-01-15 98% Marauders-Zulu DRAW 45 45 0 28789 28.824 0.010
2019-01-12 99% OdinsRavens WIN 45 31 0 28789 28.824 0.010
2019-01-10 82% FriendsofOB1 WIN 45 9 0 28789 28.824 0.010
2019-01-06 99% Czech.Prometheus DRAW 45 45 0 28789 28.824 0.010
2019-01-03 101% ActiveDonatorYMW LOSS 34 40 0 28789 28.824 0.010
2019-01-01 96% Awesome2.0 WIN 45 4 0 28789 28.824 0.010
2018-12-29 101% Havoc_Padawans DRAW 45 45 0 28789 28.824 0.010
2018-12-20 99% HowlingWookie's WIN 45 37 0 28789 28.824 0.010
2018-12-16 101% FallOfTheEmpire LOSS 29 43 0 28789 28.824 0.010
2018-12-14 99% Padawans-LF DRAW 45 45 0 28789 28.824 0.010
2018-12-05 97% battlefrontwindu WIN 45 14 0 28812 28.824 0.003
2018-12-03 98% Empire's_end DRAW 45 45 0 28812 28.824 0.003
2018-11-30 99% Rogue-Squadron DRAW 45 45 0 28812 28.824 0.003
2018-11-21 93% NewOrder-respect WIN 45 25 0 28812 28.824 0.003
2018-11-16 99% TheMorningMob DRAW 45 45 0 28812 28.824 0.003
2018-11-14 98% n7eclipse LOSS 41 45 -413 29225 29.259 0.010
2018-11-12 97% BlackWingRage WIN 45 20 0 29225 29.259 0.010
2018-11-09 102% Havoc_Padawans WIN 45 42 +435 28790 28.940 0.043
2018-11-07 94% Marauders-Alpha LOSS 42 43 -2 28792 28.943 0.043
2018-11-05 93% 1000yearsofJEDI WIN 45 15 0 28792 28.943 0.043
2018-11-01 103% Ackbars_Admirals DRAW 45 45 0 28792 28.943 0.043
2018-10-30 99% Force-awakens WIN 33 12 0 28792 28.943 0.043
2018-10-27 99% SpaceBarons DRAW 45 45 0 28792 28.943 0.043
2018-10-20 98% Wookie-Clan WIN 45 8 0 28792 28.943 0.043
2018-10-17 94% ForceLust WIN 44 9 0 28792 28.943 0.043
2018-10-14 98% Phoenixrise WIN 45 15 0 28792 28.943 0.043
2018-10-11 99% RUCOSJEDI WIN 45 44 0 28792 28.943 0.043
2018-10-09 95% RS-Commandos LOSS 32 40 -1 28793 28.943 0.043
2018-10-07 104% TheMidnightMob DRAW 45 45 0 28793 28.943 0.043
2018-10-04 103% LatinoFamily DRAW 45 45 0 28793 28.943 0.043
2018-09-30 98% _UnNamed_ WIN 45 44 +12 28781 28.934 0.044
2018-09-28 98% SourceOfTheForce WIN 45 30 0 28781 28.934 0.044
2018-09-26 95% DETROIT♤players DRAW 45 45 0 28781 28.934 0.044
2018-09-23 98% BattleRax WIN 41 27 0 28781 28.934 0.044
2018-09-18 101% Havoc_Padawans DRAW 45 45 0 28781 28.934 0.044
2018-09-14 99% Padawans-LF DRAW 45 45 0 28781 28.934 0.044
2018-09-12 97% DETROIT♤players DRAW 45 45 0 28781 28.934 0.044
2018-09-10 103% Fire_and_Ice LOSS 22 45 0 28781 28.934 0.044
2018-09-06 103% Force_Unleashed LOSS 16 41 0 28781 28.934 0.044
2018-09-04 99% FenixSqArgentina WIN 45 33 0 28781 28.934 0.044
2018-09-01 97% Donate-n-Strike LOSS 44 45 -51 28832 28.993 0.046
2018-08-30 102% ~FORCE~ DRAW 45 45 0 28832 28.993 0.046
2018-08-27 90% DejavuDeathsquad WIN 45 10 +1 28831 28.992 0.046
2018-08-24 98% Escuadron_Fenix WIN 42 20 0 28831 28.992 0.046
2018-08-22 97% Sudamerican_jedi LOSS 43 44 -41 28872 29.040 0.048
2018-08-19 93% NoEasyWayOut WIN 43 21 +1 28871 29.038 0.048
2018-08-17 98% DrtyR10Rebs WIN 45 15 0 28871 29.038 0.048
2018-08-13 98% EliteRedSquad DRAW 45 45 0 28871 29.038 0.048
2018-08-10 100% Indeland...Jedis DRAW 45 45 0 28871 29.038 0.048
2018-08-07 98% ItalianLegacy WIN 45 0 0 28871 29.038 0.048
2018-08-04 98% 5fingerdeathpnch WIN 45 1 0 28871 29.038 0.048
2018-08-02 103% Marauders-Bravo LOSS 30 40 0 28871 29.038 0.048
2018-07-30 97% Ukrainian_Boys WIN 45 37 0 28871 29.038 0.048
2018-07-28 103% Fire_and_Ice DRAW 45 45 0 28871 29.038 0.048
2018-07-25 98% Solo's_Finest WIN 45 10 0 28871 29.038 0.048
2018-07-23 102% УкраинаКиев WIN 45 41 +437 28434 28.838 0.115
2018-07-20 102% Havoc_Legends LOSS 33 40 +37 28397 28.856 0.131
2018-07-16 98% Italy-attivo WIN 45 8 0 28397 28.856 0.131
2018-07-13 99% Italia-HanSolo3 LOSS 39 41 -72 28469 29.111 0.183
2018-07-09 103% JEDI.NIGHTS WIN 45 41 +381 28088 28.989 0.257
2018-07-04 102% Rogue_Elite WIN 45 27 +122 27966 28.960 0.284
2018-07-01 97% LaRoca WIN 34 29 +98 27868 28.926 0.302
2018-06-27 103% RodianRebels WIN 45 20 +391 27477 28.815 0.382
2018-06-19 96% SourceOfTheForce WIN 40 19 +16 27951 28.810 0.245
2018-06-15 105% JediTempleBlue LOSS 32 43 +52 27899 28.832 0.267
2018-06-13 104% havoc_rebellion DRAW 45 45 0 27899 28.832 0.267
2018-06-09 105% RUS•JEDI LOSS 28 45 +17 27882 28.837 0.273
2018-06-03 98% English-Elite WIN 45 14 +16 27866 28.833 0.276
2018-05-26 101% PiratesLife4me WIN 45 36 +16 28340 28.831 0.140
2018-05-23 103% hrvatska1950 LOSS 43 45 +135 28205 29.003 0.228
2018-05-15 101% Rebeld-Reds WIN 45 36 +13 28192 29.001 0.231
2018-05-12 104% W.A.R.United LOSS 41 45 0 28192 29.001 0.231
2018-05-10 101% Ronin9 WIN 45 10 +12 28180 28.999 0.234
2018-05-02 102% Return2Power WIN 45 23 +90 28090 28.979 0.254
2018-04-25 102% JEDI-alliance LOSS 40 45 +25 28065 28.999 0.267
2018-04-22 103% MagyarBFSM DRAW 45 45 0 28065 28.999 0.267
2018-04-13 97% W.A.R.Mavericks LOSS 36 45 -12 28637 29.020 0.109
2018-04-11 102% Havoc_RAJC DRAW 45 45 0 28637 29.020 0.109
2018-04-07 101% MagyarBFSM LOSS 26 42 +4 28633 29.024 0.112
2018-04-03 104% havoc_agents LOSS 22 41 0 28633 29.024 0.112
2018-03-30 99% RogueElite2 DRAW 45 45 0 28633 29.024 0.112
2018-03-27 104% Yoda'sMafia LOSS 29 45 0 28633 29.024 0.112
2018-03-23 104% Madridatope DRAW 45 45 0 28633 29.024 0.112
2018-03-19 99% German|Rebels LOSS 30 40 0 28633 29.031 0.114
2018-03-16 100% JediJumpCrew WIN 44 30 +56 28577 29.016 0.126
2018-03-13 100% Francais:-) DRAW 45 45 0 28577 29.016 0.126
2018-03-10 103% Dutch-Rebels LOSS 14 45 0 28577 29.016 0.126
2018-03-07 99% РусскиеRU LOSS 18 45 0 28577 29.024 0.128
2018-03-04 93% SCOTLAND WIN 41 27 +2 28575 29.023 0.128
2018-02-28 101% Havoc_Legends DRAW 45 45 0 28575 29.023 0.128
2018-02-25 95% French_wings_III WIN 45 35 +4 28571 29.021 0.129
2018-02-21 98% FrancEvolution2 LOSS 27 44 0 28571 29.022 0.129
2018-02-16 96% Operation_Cobra WIN 42 18 +4 28567 29.021 0.130
2018-02-13 101% RogueSqad2 WIN 45 37 +375 28192 28.787 0.170
2018-02-09 104% BarefootPhoenix LOSS 41 45 +1 28191 28.787 0.170
2018-02-05 101% Rebelsyiir LOSS 21 43 0 28191 28.788 0.171
2018-01-29 101% Galaxywolves DRAW 45 45 0 28191 28.788 0.171
2018-01-23 99% FrancEvolution1 LOSS 29 45 -3 28194 28.815 0.177
2018-01-20 98% Wolfsreiter WIN 45 44 +125 28069 28.728 0.188
2018-01-17 105% AmericaSur LOSS 43 45 0 28069 28.728 0.188
2018-01-08 99% SmugglersDawn WIN 40 36 0 28699 28.728 0.008
2018-01-05 100% Badger-Legion WIN 37 5 0 28699 28.728 0.008
2017-12-28 85% ITALIANI LOSS 27 45 0 28699 28.728 0.008
2017-12-22 98% TheScotchCantina DRAW 45 45 0 28699 28.728 0.008
2017-12-19 99% Pica−sso2017 WIN 45 38 0 28699 28.728 0.008
2017-12-14 99% France-Knight:-) LOSS 22 45 0 28699 28.728 0.008
2017-12-09 96% Deutsche-Falken3 LOSS 37 43 0 28699 28.728 0.008
2017-12-06 99% GUARDIANSOFTHE LOSS 23 39 -77 28776 28.810 0.010
2017-11-30 105% Jedi-Jawas LOSS 0 45 0 28776 28.810 0.010
2017-11-26 63% REBEl WIN 45 20 0 28776 28.810 0.010
2017-11-23 99% GoW_KesselRun WIN 37 26 0 28776 28.810 0.010
2017-11-18 100% Oneinchpunch LOSS 37 41 -67 28843 28.893 0.015
2017-11-13 171% LikeaBoett DRAW 41 41 +11,993 16850 43.349 7.571
2017-11-09 198% Knightsfront WIN 45 6 +2,952 13898 42.684 8.225
2017-11-06 204% Windows_Rejects2 DRAW 45 45 0 13898 42.684 8.225
2017-11-02 359% WooksAndWhatnots WIN 41 23 +6,344 7554 41.059 9.573
2017-10-30 2846100% ROUNDTABLE WIN 45 38 +7,554 0 27.634 16.136
2016-07-08 1225600% Canada'sMinions WIN 44 32 +12,125 0 20.298 6.880
2016-06-25 100% Rebel'Horde LOSS 18 43 0 0 25.000 8.333
*Note: Wars from before June 22nd 2016 are not included.